sensor_id;sensor_type;location;lat;lon;timestamp;P1;durP1;ratioP1;P2;durP2;ratioP2
37903;SDS011;23738;50.422;18.758;2023-05-07T00:00:09;9.50;;;8.50;;
37903;SDS011;23738;50.422;18.758;2023-05-07T00:02:41;9.40;;;8.10;;
37903;SDS011;23738;50.422;18.758;2023-05-07T00:05:11;10.70;;;8.80;;
37903;SDS011;23738;50.422;18.758;2023-05-07T00:07:41;9.10;;;8.20;;
37903;SDS011;23738;50.422;18.758;2023-05-07T00:10:11;10.80;;;7.70;;
37903;SDS011;23738;50.422;18.758;2023-05-07T00:12:40;9.90;;;7.60;;
37903;SDS011;23738;50.422;18.758;2023-05-07T00:15:10;8.40;;;7.50;;
37903;SDS011;23738;50.422;18.758;2023-05-07T00:17:39;10.20;;;7.20;;
37903;SDS011;23738;50.422;18.758;2023-05-07T00:20:09;8.90;;;7.70;;
37903;SDS011;23738;50.422;18.758;2023-05-07T00:22:39;11.00;;;7.50;;
37903;SDS011;23738;50.422;18.758;2023-05-07T00:25:09;8.40;;;7.10;;
37903;SDS011;23738;50.422;18.758;2023-05-07T00:27:38;7.60;;;6.70;;
37903;SDS011;23738;50.422;18.758;2023-05-07T00:30:08;8.00;;;7.20;;
37903;SDS011;23738;50.422;18.758;2023-05-07T00:32:39;7.80;;;6.30;;
37903;SDS011;23738;50.422;18.758;2023-05-07T00:35:09;8.70;;;6.60;;
37903;SDS011;23738;50.422;18.758;2023-05-07T00:37:38;7.80;;;6.90;;
37903;SDS011;23738;50.422;18.758;2023-05-07T00:40:08;7.60;;;6.70;;
37903;SDS011;23738;50.422;18.758;2023-05-07T00:42:38;9.80;;;7.50;;
37903;SDS011;23738;50.422;18.758;2023-05-07T00:45:09;10.40;;;8.00;;
37903;SDS011;23738;50.422;18.758;2023-05-07T00:47:38;7.30;;;6.50;;
37903;SDS011;23738;50.422;18.758;2023-05-07T00:50:09;9.00;;;7.30;;
37903;SDS011;23738;50.422;18.758;2023-05-07T00:52:38;7.10;;;6.20;;
37903;SDS011;23738;50.422;18.758;2023-05-07T00:55:09;8.70;;;6.50;;
37903;SDS011;23738;50.422;18.758;2023-05-07T00:57:39;8.30;;;7.10;;
37903;SDS011;23738;50.422;18.758;2023-05-07T01:00:10;9.50;;;6.70;;
37903;SDS011;23738;50.422;18.758;2023-05-07T01:02:41;9.50;;;8.40;;
37903;SDS011;23738;50.422;18.758;2023-05-07T01:05:11;8.40;;;7.30;;
37903;SDS011;23738;50.422;18.758;2023-05-07T01:07:43;7.20;;;5.80;;
37903;SDS011;23738;50.422;18.758;2023-05-07T01:10:12;6.20;;;5.20;;
37903;SDS011;23738;50.422;18.758;2023-05-07T01:12:42;7.20;;;5.10;;
37903;SDS011;23738;50.422;18.758;2023-05-07T01:15:14;5.50;;;4.90;;
37903;SDS011;23738;50.422;18.758;2023-05-07T01:17:44;7.80;;;5.20;;
37903;SDS011;23738;50.422;18.758;2023-05-07T01:20:13;5.20;;;4.50;;
37903;SDS011;23738;50.422;18.758;2023-05-07T01:22:43;5.60;;;5.00;;
37903;SDS011;23738;50.422;18.758;2023-05-07T01:25:12;4.90;;;4.20;;
37903;SDS011;23738;50.422;18.758;2023-05-07T01:27:42;6.10;;;3.80;;
37903;SDS011;23738;50.422;18.758;2023-05-07T01:30:12;3.80;;;3.30;;
37903;SDS011;23738;50.422;18.758;2023-05-07T01:32:43;4.50;;;3.30;;
37903;SDS011;23738;50.422;18.758;2023-05-07T01:35:17;4.30;;;3.20;;
37903;SDS011;23738;50.422;18.758;2023-05-07T01:37:49;3.60;;;3.00;;
37903;SDS011;23738;50.422;18.758;2023-05-07T01:40:19;3.50;;;3.00;;
37903;SDS011;23738;50.422;18.758;2023-05-07T01:42:49;2.90;;;2.50;;
37903;SDS011;23738;50.422;18.758;2023-05-07T01:45:20;5.90;;;2.40;;
37903;SDS011;23738;50.422;18.758;2023-05-07T01:47:49;3.20;;;2.20;;
37903;SDS011;23738;50.422;18.758;2023-05-07T01:50:19;3.40;;;2.10;;
37903;SDS011;23738;50.422;18.758;2023-05-07T01:52:50;4.30;;;2.30;;
37903;SDS011;23738;50.422;18.758;2023-05-07T01:55:20;3.90;;;2.40;;
37903;SDS011;23738;50.422;18.758;2023-05-07T01:57:50;3.80;;;2.80;;
37903;SDS011;23738;50.422;18.758;2023-05-07T02:00:20;2.40;;;2.00;;
37903;SDS011;23738;50.422;18.758;2023-05-07T02:02:50;2.60;;;2.10;;
37903;SDS011;23738;50.422;18.758;2023-05-07T02:05:19;2.60;;;1.80;;
37903;SDS011;23738;50.422;18.758;2023-05-07T02:07:48;2.90;;;1.70;;
37903;SDS011;23738;50.422;18.758;2023-05-07T02:10:18;2.10;;;1.40;;
37903;SDS011;23738;50.422;18.758;2023-05-07T02:12:47;2.40;;;1.50;;
37903;SDS011;23738;50.422;18.758;2023-05-07T02:15:16;2.70;;;1.30;;
37903;SDS011;23738;50.422;18.758;2023-05-07T02:17:59;2.90;;;1.30;;
37903;SDS011;23738;50.422;18.758;2023-05-07T02:20:29;3.40;;;1.40;;
37903;SDS011;23738;50.422;18.758;2023-05-07T02:22:59;2.70;;;1.20;;
37903;SDS011;23738;50.422;18.758;2023-05-07T02:25:28;1.80;;;1.10;;
37903;SDS011;23738;50.422;18.758;2023-05-07T02:27:57;1.90;;;0.90;;
37903;SDS011;23738;50.422;18.758;2023-05-07T02:30:27;4.30;;;1.20;;
37903;SDS011;23738;50.422;18.758;2023-05-07T02:32:56;1.50;;;1.10;;
37903;SDS011;23738;50.422;18.758;2023-05-07T02:35:25;2.20;;;1.20;;
37903;SDS011;23738;50.422;18.758;2023-05-07T02:37:55;2.00;;;1.40;;
37903;SDS011;23738;50.422;18.758;2023-05-07T02:40:24;2.60;;;1.40;;
37903;SDS011;23738;50.422;18.758;2023-05-07T02:42:53;2.10;;;1.00;;
37903;SDS011;23738;50.422;18.758;2023-05-07T02:45:22;2.50;;;1.30;;
37903;SDS011;23738;50.422;18.758;2023-05-07T02:47:52;2.10;;;1.30;;
37903;SDS011;23738;50.422;18.758;2023-05-07T02:50:21;3.00;;;1.00;;
37903;SDS011;23738;50.422;18.758;2023-05-07T02:52:51;1.10;;;0.90;;
37903;SDS011;23738;50.422;18.758;2023-05-07T02:55:20;2.10;;;1.30;;
37903;SDS011;23738;50.422;18.758;2023-05-07T02:57:50;2.30;;;1.20;;
37903;SDS011;23738;50.422;18.758;2023-05-07T03:00:20;1.70;;;1.10;;
37903;SDS011;23738;50.422;18.758;2023-05-07T03:02:50;1.80;;;0.90;;
37903;SDS011;23738;50.422;18.758;2023-05-07T03:05:19;1.70;;;1.10;;
37903;SDS011;23738;50.422;18.758;2023-05-07T03:07:49;1.90;;;1.10;;
37903;SDS011;23738;50.422;18.758;2023-05-07T03:10:18;1.90;;;1.20;;
37903;SDS011;23738;50.422;18.758;2023-05-07T03:12:47;2.90;;;1.30;;
37903;SDS011;23738;50.422;18.758;2023-05-07T03:15:16;2.00;;;1.20;;
37903;SDS011;23738;50.422;18.758;2023-05-07T03:17:46;2.40;;;1.40;;
37903;SDS011;23738;50.422;18.758;2023-05-07T03:20:16;1.70;;;1.20;;
37903;SDS011;23738;50.422;18.758;2023-05-07T03:22:45;2.10;;;1.10;;
37903;SDS011;23738;50.422;18.758;2023-05-07T03:25:14;2.00;;;1.30;;
37903;SDS011;23738;50.422;18.758;2023-05-07T03:27:44;2.30;;;1.30;;
37903;SDS011;23738;50.422;18.758;2023-05-07T03:30:13;3.50;;;1.30;;
37903;SDS011;23738;50.422;18.758;2023-05-07T03:32:43;2.40;;;1.60;;
37903;SDS011;23738;50.422;18.758;2023-05-07T03:35:13;2.20;;;1.30;;
37903;SDS011;23738;50.422;18.758;2023-05-07T03:37:42;1.40;;;1.20;;
37903;SDS011;23738;50.422;18.758;2023-05-07T03:40:12;3.70;;;1.10;;
37903;SDS011;23738;50.422;18.758;2023-05-07T03:42:42;1.70;;;1.20;;
37903;SDS011;23738;50.422;18.758;2023-05-07T03:45:11;2.40;;;1.40;;
37903;SDS011;23738;50.422;18.758;2023-05-07T03:47:41;2.60;;;1.20;;
37903;SDS011;23738;50.422;18.758;2023-05-07T03:50:10;2.60;;;1.50;;
37903;SDS011;23738;50.422;18.758;2023-05-07T03:52:40;2.40;;;1.40;;
37903;SDS011;23738;50.422;18.758;2023-05-07T03:55:09;3.80;;;1.50;;
37903;SDS011;23738;50.422;18.758;2023-05-07T03:57:38;3.30;;;1.50;;
37903;SDS011;23738;50.422;18.758;2023-05-07T04:00:09;2.40;;;1.40;;
37903;SDS011;23738;50.422;18.758;2023-05-07T04:02:39;1.90;;;1.30;;
37903;SDS011;23738;50.422;18.758;2023-05-07T04:05:09;3.00;;;1.40;;
37903;SDS011;23738;50.422;18.758;2023-05-07T04:07:38;3.10;;;1.90;;
37903;SDS011;23738;50.422;18.758;2023-05-07T04:10:08;2.00;;;1.30;;
37903;SDS011;23738;50.422;18.758;2023-05-07T04:12:39;2.10;;;1.30;;
37903;SDS011;23738;50.422;18.758;2023-05-07T04:15:09;2.50;;;1.20;;
37903;SDS011;23738;50.422;18.758;2023-05-07T04:17:39;2.00;;;1.20;;
37903;SDS011;23738;50.422;18.758;2023-05-07T04:20:09;1.70;;;1.30;;
37903;SDS011;23738;50.422;18.758;2023-05-07T04:22:41;2.20;;;1.50;;
37903;SDS011;23738;50.422;18.758;2023-05-07T04:25:10;2.70;;;1.70;;
37903;SDS011;23738;50.422;18.758;2023-05-07T04:27:40;3.40;;;1.20;;
37903;SDS011;23738;50.422;18.758;2023-05-07T04:30:10;2.80;;;1.60;;
37903;SDS011;23738;50.422;18.758;2023-05-07T04:32:41;2.20;;;1.50;;
37903;SDS011;23738;50.422;18.758;2023-05-07T04:35:11;3.30;;;1.80;;
37903;SDS011;23738;50.422;18.758;2023-05-07T04:37:40;2.70;;;1.80;;
37903;SDS011;23738;50.422;18.758;2023-05-07T04:40:10;4.40;;;2.00;;
37903;SDS011;23738;50.422;18.758;2023-05-07T04:42:39;2.90;;;2.00;;
37903;SDS011;23738;50.422;18.758;2023-05-07T04:45:09;2.00;;;1.50;;
37903;SDS011;23738;50.422;18.758;2023-05-07T04:47:39;2.40;;;1.30;;
37903;SDS011;23738;50.422;18.758;2023-05-07T04:50:09;2.20;;;1.60;;
37903;SDS011;23738;50.422;18.758;2023-05-07T04:52:39;4.20;;;2.30;;
37903;SDS011;23738;50.422;18.758;2023-05-07T04:55:09;2.70;;;2.50;;
37903;SDS011;23738;50.422;18.758;2023-05-07T04:57:39;3.70;;;3.40;;
37903;SDS011;23738;50.422;18.758;2023-05-07T05:00:09;5.40;;;4.10;;
37903;SDS011;23738;50.422;18.758;2023-05-07T05:02:40;3.60;;;3.30;;
37903;SDS011;23738;50.422;18.758;2023-05-07T05:05:12;4.20;;;3.30;;
37903;SDS011;23738;50.422;18.758;2023-05-07T05:07:41;3.40;;;2.60;;
37903;SDS011;23738;50.422;18.758;2023-05-07T05:10:11;3.30;;;2.50;;
37903;SDS011;23738;50.422;18.758;2023-05-07T05:12:40;3.10;;;2.80;;
37903;SDS011;23738;50.422;18.758;2023-05-07T05:15:10;4.80;;;3.60;;
37903;SDS011;23738;50.422;18.758;2023-05-07T05:17:40;3.40;;;3.10;;
37903;SDS011;23738;50.422;18.758;2023-05-07T05:20:09;4.00;;;3.60;;
37903;SDS011;23738;50.422;18.758;2023-05-07T05:22:39;4.30;;;2.90;;
37903;SDS011;23738;50.422;18.758;2023-05-07T05:25:09;7.50;;;3.60;;
37903;SDS011;23738;50.422;18.758;2023-05-07T05:27:38;3.80;;;3.20;;
37903;SDS011;23738;50.422;18.758;2023-05-07T05:30:08;4.70;;;3.40;;
37903;SDS011;23738;50.422;18.758;2023-05-07T05:32:39;3.90;;;3.60;;
37903;SDS011;23738;50.422;18.758;2023-05-07T05:35:09;4.70;;;3.40;;
37903;SDS011;23738;50.422;18.758;2023-05-07T05:37:38;3.70;;;3.30;;
37903;SDS011;23738;50.422;18.758;2023-05-07T05:40:08;4.80;;;3.50;;
37903;SDS011;23738;50.422;18.758;2023-05-07T05:42:38;3.50;;;3.20;;
37903;SDS011;23738;50.422;18.758;2023-05-07T05:45:09;4.70;;;4.30;;
37903;SDS011;23738;50.422;18.758;2023-05-07T05:47:38;4.90;;;4.40;;
37903;SDS011;23738;50.422;18.758;2023-05-07T05:50:09;5.60;;;5.10;;
37903;SDS011;23738;50.422;18.758;2023-05-07T05:52:38;4.70;;;4.20;;
37903;SDS011;23738;50.422;18.758;2023-05-07T05:55:09;5.40;;;4.70;;
37903;SDS011;23738;50.422;18.758;2023-05-07T05:57:38;5.40;;;4.80;;
37903;SDS011;23738;50.422;18.758;2023-05-07T06:00:09;5.10;;;4.50;;
37903;SDS011;23738;50.422;18.758;2023-05-07T06:02:39;4.70;;;4.10;;
37903;SDS011;23738;50.422;18.758;2023-05-07T06:05:09;5.50;;;4.80;;
37903;SDS011;23738;50.422;18.758;2023-05-07T06:07:38;4.80;;;4.40;;
37903;SDS011;23738;50.422;18.758;2023-05-07T06:10:08;4.00;;;3.60;;
37903;SDS011;23738;50.422;18.758;2023-05-07T06:12:37;3.10;;;2.40;;
37903;SDS011;23738;50.422;18.758;2023-05-07T06:15:08;3.90;;;2.20;;
37903;SDS011;23738;50.422;18.758;2023-05-07T06:17:38;3.40;;;2.50;;
37903;SDS011;23738;50.422;18.758;2023-05-07T06:20:08;2.90;;;1.50;;
37903;SDS011;23738;50.422;18.758;2023-05-07T06:22:38;2.50;;;1.80;;
37903;SDS011;23738;50.422;18.758;2023-05-07T06:25:08;1.90;;;1.50;;
37903;SDS011;23738;50.422;18.758;2023-05-07T06:27:38;4.00;;;1.90;;
37903;SDS011;23738;50.422;18.758;2023-05-07T06:30:08;3.20;;;1.40;;
37903;SDS011;23738;50.422;18.758;2023-05-07T06:32:39;2.60;;;1.60;;
37903;SDS011;23738;50.422;18.758;2023-05-07T06:35:09;2.30;;;1.50;;
37903;SDS011;23738;50.422;18.758;2023-05-07T06:37:40;2.00;;;1.10;;
37903;SDS011;23738;50.422;18.758;2023-05-07T06:40:10;1.90;;;1.50;;
37903;SDS011;23738;50.422;18.758;2023-05-07T06:42:40;3.20;;;1.70;;
37903;SDS011;23738;50.422;18.758;2023-05-07T06:45:10;2.00;;;1.70;;
37903;SDS011;23738;50.422;18.758;2023-05-07T06:47:40;1.90;;;1.40;;
37903;SDS011;23738;50.422;18.758;2023-05-07T06:50:10;3.70;;;1.50;;
37903;SDS011;23738;50.422;18.758;2023-05-07T06:52:39;3.30;;;1.30;;
37903;SDS011;23738;50.422;18.758;2023-05-07T06:55:09;2.30;;;1.10;;
37903;SDS011;23738;50.422;18.758;2023-05-07T06:57:38;2.10;;;1.50;;
37903;SDS011;23738;50.422;18.758;2023-05-07T07:00:09;2.60;;;1.20;;
37903;SDS011;23738;50.422;18.758;2023-05-07T07:02:40;2.00;;;1.20;;
37903;SDS011;23738;50.422;18.758;2023-05-07T07:05:10;1.90;;;1.20;;
37903;SDS011;23738;50.422;18.758;2023-05-07T07:07:39;1.60;;;1.10;;
37903;SDS011;23738;50.422;18.758;2023-05-07T07:10:09;1.00;;;0.70;;
37903;SDS011;23738;50.422;18.758;2023-05-07T07:12:38;2.20;;;1.00;;
37903;SDS011;23738;50.422;18.758;2023-05-07T07:15:08;6.20;;;1.70;;
37903;SDS011;23738;50.422;18.758;2023-05-07T07:17:38;2.90;;;2.10;;
37903;SDS011;23738;50.422;18.758;2023-05-07T07:20:09;2.40;;;1.50;;
37903;SDS011;23738;50.422;18.758;2023-05-07T07:22:39;1.20;;;1.00;;
37903;SDS011;23738;50.422;18.758;2023-05-07T07:25:09;1.50;;;1.10;;
37903;SDS011;23738;50.422;18.758;2023-05-07T07:27:38;2.20;;;1.50;;
37903;SDS011;23738;50.422;18.758;2023-05-07T07:30:08;2.30;;;1.40;;
37903;SDS011;23738;50.422;18.758;2023-05-07T07:32:38;2.30;;;1.70;;
37903;SDS011;23738;50.422;18.758;2023-05-07T07:35:08;4.70;;;3.10;;
37903;SDS011;23738;50.422;18.758;2023-05-07T07:37:38;2.20;;;1.50;;
37903;SDS011;23738;50.422;18.758;2023-05-07T07:40:08;3.20;;;1.90;;
37903;SDS011;23738;50.422;18.758;2023-05-07T07:42:39;2.50;;;1.40;;
37903;SDS011;23738;50.422;18.758;2023-05-07T07:45:09;2.40;;;2.20;;
37903;SDS011;23738;50.422;18.758;2023-05-07T07:47:39;4.10;;;3.10;;
37903;SDS011;23738;50.422;18.758;2023-05-07T07:50:09;3.30;;;2.70;;
37903;SDS011;23738;50.422;18.758;2023-05-07T07:52:38;3.80;;;2.60;;
37903;SDS011;23738;50.422;18.758;2023-05-07T07:55:08;2.40;;;2.00;;
37903;SDS011;23738;50.422;18.758;2023-05-07T07:57:38;4.10;;;2.70;;
37903;SDS011;23738;50.422;18.758;2023-05-07T08:00:09;2.50;;;2.30;;
37903;SDS011;23738;50.422;18.758;2023-05-07T08:02:39;3.10;;;1.90;;
37903;SDS011;23738;50.422;18.758;2023-05-07T08:05:09;2.60;;;1.70;;
37903;SDS011;23738;50.422;18.758;2023-05-07T08:07:38;2.00;;;1.80;;
37903;SDS011;23738;50.422;18.758;2023-05-07T08:10:08;2.90;;;1.70;;
37903;SDS011;23738;50.422;18.758;2023-05-07T08:12:38;2.60;;;1.60;;
37903;SDS011;23738;50.422;18.758;2023-05-07T08:15:08;3.20;;;1.50;;
37903;SDS011;23738;50.422;18.758;2023-05-07T08:17:38;3.50;;;2.30;;
37903;SDS011;23738;50.422;18.758;2023-05-07T08:20:08;3.00;;;1.80;;
37903;SDS011;23738;50.422;18.758;2023-05-07T08:22:38;3.10;;;2.90;;
37903;SDS011;23738;50.422;18.758;2023-05-07T08:25:08;3.20;;;2.90;;
37903;SDS011;23738;50.422;18.758;2023-05-07T08:27:37;2.50;;;1.70;;
37903;SDS011;23738;50.422;18.758;2023-05-07T08:30:08;18.80;;;10.80;;
37903;SDS011;23738;50.422;18.758;2023-05-07T08:32:39;15.40;;;13.80;;
37903;SDS011;23738;50.422;18.758;2023-05-07T08:35:08;8.60;;;7.70;;
37903;SDS011;23738;50.422;18.758;2023-05-07T08:37:38;4.60;;;4.20;;
37903;SDS011;23738;50.422;18.758;2023-05-07T08:40:08;15.80;;;14.10;;
37903;SDS011;23738;50.422;18.758;2023-05-07T08:42:38;16.30;;;14.70;;
37903;SDS011;23738;50.422;18.758;2023-05-07T08:45:10;5.00;;;4.50;;
37903;SDS011;23738;50.422;18.758;2023-05-07T08:47:42;4.70;;;3.70;;
37903;SDS011;23738;50.422;18.758;2023-05-07T08:50:14;4.80;;;3.90;;
37903;SDS011;23738;50.422;18.758;2023-05-07T08:52:45;7.60;;;6.70;;
37903;SDS011;23738;50.422;18.758;2023-05-07T08:55:14;4.00;;;3.30;;
37903;SDS011;23738;50.422;18.758;2023-05-07T08:57:44;3.40;;;3.10;;
37903;SDS011;23738;50.422;18.758;2023-05-07T09:00:15;5.70;;;4.00;;
37903;SDS011;23738;50.422;18.758;2023-05-07T09:02:46;5.20;;;4.80;;
37903;SDS011;23738;50.422;18.758;2023-05-07T09:05:15;6.10;;;5.30;;
37903;SDS011;23738;50.422;18.758;2023-05-07T09:07:45;3.80;;;2.60;;
37903;SDS011;23738;50.422;18.758;2023-05-07T09:10:14;3.30;;;2.20;;
37903;SDS011;23738;50.422;18.758;2023-05-07T09:12:44;16.40;;;8.80;;
37903;SDS011;23738;50.422;18.758;2023-05-07T09:15:15;7.40;;;5.30;;
37903;SDS011;23738;50.422;18.758;2023-05-07T09:17:45;4.00;;;2.80;;
37903;SDS011;23738;50.422;18.758;2023-05-07T09:20:14;9.60;;;7.00;;
37903;SDS011;23738;50.422;18.758;2023-05-07T09:22:45;3.60;;;2.80;;
37903;SDS011;23738;50.422;18.758;2023-05-07T09:25:18;2.50;;;1.70;;
37903;SDS011;23738;50.422;18.758;2023-05-07T09:27:56;2.90;;;2.00;;
37903;SDS011;23738;50.422;18.758;2023-05-07T09:30:28;3.50;;;2.80;;
37903;SDS011;23738;50.422;18.758;2023-05-07T09:32:59;2.60;;;2.10;;
37903;SDS011;23738;50.422;18.758;2023-05-07T09:35:29;1.50;;;1.40;;
37903;SDS011;23738;50.422;18.758;2023-05-07T09:37:59;1.40;;;1.20;;
37903;SDS011;23738;50.422;18.758;2023-05-07T09:40:29;2.30;;;2.00;;
37903;SDS011;23738;50.422;18.758;2023-05-07T09:43:09;2.20;;;1.70;;
37903;SDS011;23738;50.422;18.758;2023-05-07T09:45:40;2.30;;;2.10;;
37903;SDS011;23738;50.422;18.758;2023-05-07T09:48:10;3.00;;;2.50;;
37903;SDS011;23738;50.422;18.758;2023-05-07T09:50:46;5.40;;;3.30;;
37903;SDS011;23738;50.422;18.758;2023-05-07T09:55:47;2.30;;;2.10;;
37903;SDS011;23738;50.422;18.758;2023-05-07T09:58:17;2.10;;;1.90;;
37903;SDS011;23738;50.422;18.758;2023-05-07T10:00:49;1.80;;;1.50;;
37903;SDS011;23738;50.422;18.758;2023-05-07T10:03:20;1.70;;;1.60;;
37903;SDS011;23738;50.422;18.758;2023-05-07T10:05:52;1.50;;;1.40;;
37903;SDS011;23738;50.422;18.758;2023-05-07T10:08:22;1.80;;;1.50;;
37903;SDS011;23738;50.422;18.758;2023-05-07T10:10:52;2.00;;;1.70;;
37903;SDS011;23738;50.422;18.758;2023-05-07T10:13:21;1.50;;;1.40;;
37903;SDS011;23738;50.422;18.758;2023-05-07T10:15:51;2.10;;;1.30;;
37903;SDS011;23738;50.422;18.758;2023-05-07T10:18:22;3.20;;;1.50;;
37903;SDS011;23738;50.422;18.758;2023-05-07T10:20:56;2.00;;;1.70;;
37903;SDS011;23738;50.422;18.758;2023-05-07T10:23:29;2.00;;;1.80;;
37903;SDS011;23738;50.422;18.758;2023-05-07T10:25:59;2.00;;;1.70;;
37903;SDS011;23738;50.422;18.758;2023-05-07T10:28:32;2.40;;;1.50;;
37903;SDS011;23738;50.422;18.758;2023-05-07T10:31:10;1.90;;;1.40;;
37903;SDS011;23738;50.422;18.758;2023-05-07T10:33:51;2.30;;;1.80;;
37903;SDS011;23738;50.422;18.758;2023-05-07T10:36:22;2.40;;;2.20;;
37903;SDS011;23738;50.422;18.758;2023-05-07T10:38:54;2.00;;;1.70;;
37903;SDS011;23738;50.422;18.758;2023-05-07T10:41:24;3.90;;;2.80;;
37903;SDS011;23738;50.422;18.758;2023-05-07T10:43:53;3.50;;;3.00;;
37903;SDS011;23738;50.422;18.758;2023-05-07T10:46:22;2.60;;;2.20;;
37903;SDS011;23738;50.422;18.758;2023-05-07T10:49:07;1.90;;;1.50;;
37903;SDS011;23738;50.422;18.758;2023-05-07T10:51:38;2.30;;;1.70;;
37903;SDS011;23738;50.422;18.758;2023-05-07T10:54:20;2.10;;;1.80;;
37903;SDS011;23738;50.422;18.758;2023-05-07T10:56:53;8.20;;;7.50;;
37903;SDS011;23738;50.422;18.758;2023-05-07T10:59:32;4.00;;;3.60;;
37903;SDS011;23738;50.422;18.758;2023-05-07T11:02:08;10.40;;;4.40;;
37903;SDS011;23738;50.422;18.758;2023-05-07T11:04:40;5.90;;;2.20;;
37903;SDS011;23738;50.422;18.758;2023-05-07T11:07:29;3.00;;;2.30;;
37903;SDS011;23738;50.422;18.758;2023-05-07T11:10:03;5.40;;;3.40;;
37903;SDS011;23738;50.422;18.758;2023-05-07T11:12:53;5.40;;;4.90;;
37903;SDS011;23738;50.422;18.758;2023-05-07T11:15:35;19.70;;;12.30;;
37903;SDS011;23738;50.422;18.758;2023-05-07T11:18:09;22.30;;;13.80;;
37903;SDS011;23738;50.422;18.758;2023-05-07T11:20:46;26.20;;;15.20;;
37903;SDS011;23738;50.422;18.758;2023-05-07T11:26:27;50.00;;;23.70;;
37903;SDS011;23738;50.422;18.758;2023-05-07T11:28:58;26.00;;;12.50;;
37903;SDS011;23738;50.422;18.758;2023-05-07T11:31:27;11.10;;;7.60;;
37903;SDS011;23738;50.422;18.758;2023-05-07T11:33:58;10.00;;;5.90;;
37903;SDS011;23738;50.422;18.758;2023-05-07T11:36:30;8.40;;;5.60;;
37903;SDS011;23738;50.422;18.758;2023-05-07T11:39:00;5.10;;;3.90;;
37903;SDS011;23738;50.422;18.758;2023-05-07T11:41:36;5.80;;;4.30;;
37903;SDS011;23738;50.422;18.758;2023-05-07T11:44:05;8.30;;;4.50;;
37903;SDS011;23738;50.422;18.758;2023-05-07T11:46:34;9.60;;;5.60;;
37903;SDS011;23738;50.422;18.758;2023-05-07T11:49:04;6.20;;;5.30;;
37903;SDS011;23738;50.422;18.758;2023-05-07T11:51:33;10.00;;;7.90;;
37903;SDS011;23738;50.422;18.758;2023-05-07T11:54:04;9.60;;;6.60;;
37903;SDS011;23738;50.422;18.758;2023-05-07T11:56:35;8.40;;;6.40;;
37903;SDS011;23738;50.422;18.758;2023-05-07T11:59:04;8.50;;;6.30;;
37903;SDS011;23738;50.422;18.758;2023-05-07T12:01:34;6.90;;;6.20;;
37903;SDS011;23738;50.422;18.758;2023-05-07T12:04:04;14.80;;;10.70;;
37903;SDS011;23738;50.422;18.758;2023-05-07T12:06:37;10.40;;;8.80;;
37903;SDS011;23738;50.422;18.758;2023-05-07T12:09:06;10.60;;;7.80;;
37903;SDS011;23738;50.422;18.758;2023-05-07T12:11:37;7.10;;;5.80;;
37903;SDS011;23738;50.422;18.758;2023-05-07T12:14:07;5.00;;;3.80;;
37903;SDS011;23738;50.422;18.758;2023-05-07T12:16:36;6.20;;;4.40;;
37903;SDS011;23738;50.422;18.758;2023-05-07T12:19:07;5.90;;;4.00;;
37903;SDS011;23738;50.422;18.758;2023-05-07T12:21:38;5.20;;;3.70;;
37903;SDS011;23738;50.422;18.758;2023-05-07T12:24:09;6.20;;;3.80;;
37903;SDS011;23738;50.422;18.758;2023-05-07T12:26:38;4.80;;;3.10;;
37903;SDS011;23738;50.422;18.758;2023-05-07T12:29:08;6.20;;;4.00;;
37903;SDS011;23738;50.422;18.758;2023-05-07T12:31:37;8.10;;;3.70;;
37903;SDS011;23738;50.422;18.758;2023-05-07T12:34:09;3.40;;;2.40;;
37903;SDS011;23738;50.422;18.758;2023-05-07T12:36:40;3.70;;;2.70;;
37903;SDS011;23738;50.422;18.758;2023-05-07T12:39:09;3.10;;;2.50;;
37903;SDS011;23738;50.422;18.758;2023-05-07T12:44:23;3.20;;;2.70;;
37903;SDS011;23738;50.422;18.758;2023-05-07T12:46:56;3.20;;;2.40;;
37903;SDS011;23738;50.422;18.758;2023-05-07T12:49:26;3.10;;;2.60;;
37903;SDS011;23738;50.422;18.758;2023-05-07T12:51:56;3.60;;;2.60;;
37903;SDS011;23738;50.422;18.758;2023-05-07T12:54:29;7.50;;;4.80;;
37903;SDS011;23738;50.422;18.758;2023-05-07T12:57:03;8.10;;;6.20;;
37903;SDS011;23738;50.422;18.758;2023-05-07T12:59:35;10.20;;;8.60;;
37903;SDS011;23738;50.422;18.758;2023-05-07T13:02:06;5.70;;;4.90;;
37903;SDS011;23738;50.422;18.758;2023-05-07T13:04:36;4.70;;;2.90;;
37903;SDS011;23738;50.422;18.758;2023-05-07T13:07:05;5.10;;;3.50;;
37903;SDS011;23738;50.422;18.758;2023-05-07T13:09:34;5.20;;;4.10;;
37903;SDS011;23738;50.422;18.758;2023-05-07T13:12:04;5.70;;;4.50;;
37903;SDS011;23738;50.422;18.758;2023-05-07T13:14:34;5.90;;;3.60;;
37903;SDS011;23738;50.422;18.758;2023-05-07T13:17:03;7.30;;;3.70;;
37903;SDS011;23738;50.422;18.758;2023-05-07T13:19:32;5.00;;;2.80;;
37903;SDS011;23738;50.422;18.758;2023-05-07T13:22:03;16.50;;;12.50;;
37903;SDS011;23738;50.422;18.758;2023-05-07T13:24:33;9.30;;;7.30;;
37903;SDS011;23738;50.422;18.758;2023-05-07T13:27:02;6.00;;;4.50;;
37903;SDS011;23738;50.422;18.758;2023-05-07T13:29:31;8.10;;;4.30;;
37903;SDS011;23738;50.422;18.758;2023-05-07T13:32:01;9.30;;;7.40;;
37903;SDS011;23738;50.422;18.758;2023-05-07T13:34:30;7.50;;;4.90;;
37903;SDS011;23738;50.422;18.758;2023-05-07T13:37:00;3.90;;;3.50;;
37903;SDS011;23738;50.422;18.758;2023-05-07T13:39:29;3.50;;;2.60;;
37903;SDS011;23738;50.422;18.758;2023-05-07T13:41:59;3.80;;;3.40;;
37903;SDS011;23738;50.422;18.758;2023-05-07T13:44:28;5.00;;;3.20;;
37903;SDS011;23738;50.422;18.758;2023-05-07T13:46:57;5.80;;;3.90;;
37903;SDS011;23738;50.422;18.758;2023-05-07T13:49:27;5.80;;;4.10;;
37903;SDS011;23738;50.422;18.758;2023-05-07T13:51:56;6.10;;;4.50;;
37903;SDS011;23738;50.422;18.758;2023-05-07T13:54:26;4.70;;;3.50;;
37903;SDS011;23738;50.422;18.758;2023-05-07T13:56:55;8.40;;;4.80;;
37903;SDS011;23738;50.422;18.758;2023-05-07T13:59:24;7.20;;;6.40;;
37903;SDS011;23738;50.422;18.758;2023-05-07T14:01:53;10.40;;;8.20;;
37903;SDS011;23738;50.422;18.758;2023-05-07T14:04:23;9.20;;;7.60;;
37903;SDS011;23738;50.422;18.758;2023-05-07T14:06:52;10.80;;;8.90;;
37903;SDS011;23738;50.422;18.758;2023-05-07T14:09:22;16.60;;;11.40;;
37903;SDS011;23738;50.422;18.758;2023-05-07T14:11:51;14.30;;;9.40;;
37903;SDS011;23738;50.422;18.758;2023-05-07T14:14:20;12.60;;;10.90;;
37903;SDS011;23738;50.422;18.758;2023-05-07T14:16:49;8.30;;;5.30;;
37903;SDS011;23738;50.422;18.758;2023-05-07T14:19:19;4.10;;;3.70;;
37903;SDS011;23738;50.422;18.758;2023-05-07T14:21:49;5.70;;;3.80;;
37903;SDS011;23738;50.422;18.758;2023-05-07T14:24:18;7.80;;;4.80;;
37903;SDS011;23738;50.422;18.758;2023-05-07T14:26:48;6.40;;;4.50;;
37903;SDS011;23738;50.422;18.758;2023-05-07T14:29:17;4.10;;;3.40;;
37903;SDS011;23738;50.422;18.758;2023-05-07T14:31:46;4.40;;;3.90;;
37903;SDS011;23738;50.422;18.758;2023-05-07T14:34:16;7.20;;;5.10;;
37903;SDS011;23738;50.422;18.758;2023-05-07T14:36:45;6.00;;;4.60;;
37903;SDS011;23738;50.422;18.758;2023-05-07T14:39:14;5.70;;;4.40;;
37903;SDS011;23738;50.422;18.758;2023-05-07T14:41:43;8.00;;;4.70;;
37903;SDS011;23738;50.422;18.758;2023-05-07T14:44:12;7.50;;;6.20;;
37903;SDS011;23738;50.422;18.758;2023-05-07T14:46:42;6.10;;;4.90;;
37903;SDS011;23738;50.422;18.758;2023-05-07T14:49:11;6.30;;;5.40;;
37903;SDS011;23738;50.422;18.758;2023-05-07T14:51:43;6.70;;;4.20;;
37903;SDS011;23738;50.422;18.758;2023-05-07T14:54:13;6.00;;;4.80;;
37903;SDS011;23738;50.422;18.758;2023-05-07T14:56:43;6.10;;;4.80;;
37903;SDS011;23738;50.422;18.758;2023-05-07T14:59:12;14.20;;;9.90;;